sensor_id;sensor_type;location;lat;lon;timestamp;P1;durP1;ratioP1;P2;durP2;ratioP2
18568;SDS011;14780;48.316;-1.050;2023-08-12T00:00:21;3.63;;;1.00;;
18568;SDS011;14780;48.316;-1.050;2023-08-12T00:03:06;1.00;;;1.00;;
18568;SDS011;14780;48.316;-1.050;2023-08-12T00:05:52;1.02;;;0.90;;
18568;SDS011;14780;48.316;-1.050;2023-08-12T00:08:37;1.17;;;0.93;;
18568;SDS011;14780;48.316;-1.050;2023-08-12T00:11:22;1.30;;;1.08;;
18568;SDS011;14780;48.316;-1.050;2023-08-12T00:14:06;1.10;;;1.00;;
18568;SDS011;14780;48.316;-1.050;2023-08-12T00:16:51;1.38;;;0.90;;
18568;SDS011;14780;48.316;-1.050;2023-08-12T00:19:35;1.05;;;1.02;;
18568;SDS011;14780;48.316;-1.050;2023-08-12T00:22:21;1.70;;;1.30;;
18568;SDS011;14780;48.316;-1.050;2023-08-12T00:25:06;0.75;;;0.75;;
18568;SDS011;14780;48.316;-1.050;2023-08-12T00:27:52;1.10;;;1.00;;
18568;SDS011;14780;48.316;-1.050;2023-08-12T00:30:36;1.00;;;0.90;;
18568;SDS011;14780;48.316;-1.050;2023-08-12T00:33:21;3.37;;;1.13;;
18568;SDS011;14780;48.316;-1.050;2023-08-12T00:36:05;1.25;;;0.77;;
18568;SDS011;14780;48.316;-1.050;2023-08-12T00:38:50;1.15;;;0.65;;
18568;SDS011;14780;48.316;-1.050;2023-08-12T00:41:35;1.00;;;0.90;;
18568;SDS011;14780;48.316;-1.050;2023-08-12T00:44:19;0.77;;;0.77;;
18568;SDS011;14780;48.316;-1.050;2023-08-12T00:47:05;0.88;;;0.88;;
18568;SDS011;14780;48.316;-1.050;2023-08-12T00:49:50;1.83;;;1.10;;
18568;SDS011;14780;48.316;-1.050;2023-08-12T00:52:35;1.00;;;0.90;;
18568;SDS011;14780;48.316;-1.050;2023-08-12T00:55:20;1.48;;;1.00;;
18568;SDS011;14780;48.316;-1.050;2023-08-12T00:58:06;3.13;;;0.95;;
18568;SDS011;14780;48.316;-1.050;2023-08-12T01:00:51;0.98;;;0.90;;
18568;SDS011;14780;48.316;-1.050;2023-08-12T01:03:36;1.60;;;0.90;;
18568;SDS011;14780;48.316;-1.050;2023-08-12T01:06:21;1.05;;;0.95;;
18568;SDS011;14780;48.316;-1.050;2023-08-12T01:09:07;0.80;;;0.80;;
18568;SDS011;14780;48.316;-1.050;2023-08-12T01:15:17;1.08;;;0.98;;
18568;SDS011;14780;48.316;-1.050;2023-08-12T01:18:07;2.57;;;1.10;;
18568;SDS011;14780;48.316;-1.050;2023-08-12T01:20:53;1.00;;;1.00;;
18568;SDS011;14780;48.316;-1.050;2023-08-12T01:23:39;1.10;;;1.00;;
18568;SDS011;14780;48.316;-1.050;2023-08-12T01:26:25;0.82;;;0.82;;
18568;SDS011;14780;48.316;-1.050;2023-08-12T01:29:09;1.23;;;0.80;;
18568;SDS011;14780;48.316;-1.050;2023-08-12T01:31:55;1.10;;;0.90;;
18568;SDS011;14780;48.316;-1.050;2023-08-12T01:35:00;2.60;;;1.10;;
18568;SDS011;14780;48.316;-1.050;2023-08-12T01:37:53;1.13;;;1.00;;
18568;SDS011;14780;48.316;-1.050;2023-08-12T01:40:39;1.17;;;0.90;;
18568;SDS011;14780;48.316;-1.050;2023-08-12T01:43:25;1.50;;;0.85;;
18568;SDS011;14780;48.316;-1.050;2023-08-12T01:46:10;1.10;;;0.88;;
18568;SDS011;14780;48.316;-1.050;2023-08-12T01:48:55;0.70;;;0.70;;
18568;SDS011;14780;48.316;-1.050;2023-08-12T01:51:40;1.00;;;0.90;;
18568;SDS011;14780;48.316;-1.050;2023-08-12T01:54:25;1.20;;;0.90;;
18568;SDS011;14780;48.316;-1.050;2023-08-12T01:57:10;1.48;;;0.90;;
18568;SDS011;14780;48.316;-1.050;2023-08-12T01:59:54;1.45;;;0.80;;
18568;SDS011;14780;48.316;-1.050;2023-08-12T02:02:39;1.60;;;1.10;;
18568;SDS011;14780;48.316;-1.050;2023-08-12T02:05:24;0.70;;;0.70;;
18568;SDS011;14780;48.316;-1.050;2023-08-12T02:08:09;1.55;;;1.10;;
18568;SDS011;14780;48.316;-1.050;2023-08-12T02:10:54;1.00;;;0.90;;
18568;SDS011;14780;48.316;-1.050;2023-08-12T02:13:39;1.23;;;1.00;;
18568;SDS011;14780;48.316;-1.050;2023-08-12T02:16:23;1.15;;;0.82;;
18568;SDS011;14780;48.316;-1.050;2023-08-12T02:19:08;1.70;;;1.10;;
18568;SDS011;14780;48.316;-1.050;2023-08-12T02:21:52;1.98;;;0.98;;
18568;SDS011;14780;48.316;-1.050;2023-08-12T02:24:37;0.90;;;0.90;;
18568;SDS011;14780;48.316;-1.050;2023-08-12T02:27:21;1.02;;;0.93;;
18568;SDS011;14780;48.316;-1.050;2023-08-12T02:30:07;1.38;;;1.08;;
18568;SDS011;14780;48.316;-1.050;2023-08-12T02:32:52;1.83;;;1.13;;
18568;SDS011;14780;48.316;-1.050;2023-08-12T02:35:36;2.28;;;1.13;;
18568;SDS011;14780;48.316;-1.050;2023-08-12T02:38:22;1.10;;;1.00;;
18568;SDS011;14780;48.316;-1.050;2023-08-12T02:41:07;2.75;;;1.10;;
18568;SDS011;14780;48.316;-1.050;2023-08-12T02:43:52;1.88;;;1.10;;
18568;SDS011;14780;48.316;-1.050;2023-08-12T02:46:37;1.38;;;1.00;;
18568;SDS011;14780;48.316;-1.050;2023-08-12T02:49:22;1.70;;;1.10;;
18568;SDS011;14780;48.316;-1.050;2023-08-12T02:52:06;0.90;;;0.90;;
18568;SDS011;14780;48.316;-1.050;2023-08-12T02:54:51;3.35;;;1.20;;
18568;SDS011;14780;48.316;-1.050;2023-08-12T02:57:36;2.00;;;1.35;;
18568;SDS011;14780;48.316;-1.050;2023-08-12T03:00:21;1.35;;;1.20;;
18568;SDS011;14780;48.316;-1.050;2023-08-12T03:03:05;1.58;;;1.15;;
18568;SDS011;14780;48.316;-1.050;2023-08-12T03:05:50;1.48;;;1.10;;
18568;SDS011;14780;48.316;-1.050;2023-08-12T03:08:35;2.00;;;1.27;;
18568;SDS011;14780;48.316;-1.050;2023-08-12T03:11:20;1.83;;;1.20;;
18568;SDS011;14780;48.316;-1.050;2023-08-12T03:14:05;2.20;;;1.40;;
18568;SDS011;14780;48.316;-1.050;2023-08-12T03:16:49;2.30;;;1.10;;
18568;SDS011;14780;48.316;-1.050;2023-08-12T03:19:34;1.88;;;1.27;;
18568;SDS011;14780;48.316;-1.050;2023-08-12T03:22:19;3.03;;;1.20;;
18568;SDS011;14780;48.316;-1.050;2023-08-12T03:25:05;1.40;;;1.10;;
18568;SDS011;14780;48.316;-1.050;2023-08-12T03:27:50;1.55;;;1.40;;
18568;SDS011;14780;48.316;-1.050;2023-08-12T03:30:34;2.85;;;1.40;;
18568;SDS011;14780;48.316;-1.050;2023-08-12T03:33:19;1.80;;;1.00;;
18568;SDS011;14780;48.316;-1.050;2023-08-12T03:36:04;1.83;;;1.23;;
18568;SDS011;14780;48.316;-1.050;2023-08-12T03:38:50;1.98;;;1.33;;
18568;SDS011;14780;48.316;-1.050;2023-08-12T03:41:35;1.85;;;1.40;;
18568;SDS011;14780;48.316;-1.050;2023-08-12T03:44:19;1.20;;;1.10;;
18568;SDS011;14780;48.316;-1.050;2023-08-12T03:47:04;1.23;;;1.13;;
18568;SDS011;14780;48.316;-1.050;2023-08-12T03:49:49;2.70;;;1.33;;
18568;SDS011;14780;48.316;-1.050;2023-08-12T03:52:34;2.78;;;1.35;;
18568;SDS011;14780;48.316;-1.050;2023-08-12T03:55:18;2.05;;;1.25;;
18568;SDS011;14780;48.316;-1.050;2023-08-12T03:58:03;1.40;;;1.10;;
18568;SDS011;14780;48.316;-1.050;2023-08-12T04:00:48;3.42;;;1.45;;
18568;SDS011;14780;48.316;-1.050;2023-08-12T04:03:33;2.38;;;1.50;;
18568;SDS011;14780;48.316;-1.050;2023-08-12T04:06:17;2.38;;;1.35;;
18568;SDS011;14780;48.316;-1.050;2023-08-12T04:09:02;2.75;;;1.35;;
18568;SDS011;14780;48.316;-1.050;2023-08-12T04:11:47;2.78;;;1.25;;
18568;SDS011;14780;48.316;-1.050;2023-08-12T04:14:32;2.55;;;1.40;;
18568;SDS011;14780;48.316;-1.050;2023-08-12T04:17:16;2.05;;;1.17;;
18568;SDS011;14780;48.316;-1.050;2023-08-12T04:20:01;1.90;;;1.33;;
18568;SDS011;14780;48.316;-1.050;2023-08-12T04:22:49;3.65;;;1.70;;
18568;SDS011;14780;48.316;-1.050;2023-08-12T04:25:33;2.67;;;1.55;;
18568;SDS011;14780;48.316;-1.050;2023-08-12T04:28:18;3.05;;;1.40;;
18568;SDS011;14780;48.316;-1.050;2023-08-12T04:31:05;2.47;;;1.40;;
18568;SDS011;14780;48.316;-1.050;2023-08-12T04:33:51;2.42;;;1.38;;
18568;SDS011;14780;48.316;-1.050;2023-08-12T04:36:36;1.33;;;1.23;;
18568;SDS011;14780;48.316;-1.050;2023-08-12T04:39:21;3.47;;;1.40;;
18568;SDS011;14780;48.316;-1.050;2023-08-12T04:42:06;1.95;;;1.40;;
18568;SDS011;14780;48.316;-1.050;2023-08-12T04:44:51;1.85;;;1.23;;
18568;SDS011;14780;48.316;-1.050;2023-08-12T04:47:36;3.58;;;1.50;;
18568;SDS011;14780;48.316;-1.050;2023-08-12T04:50:21;4.10;;;1.70;;
18568;SDS011;14780;48.316;-1.050;2023-08-12T04:53:05;3.13;;;1.63;;
18568;SDS011;14780;48.316;-1.050;2023-08-12T04:55:50;3.17;;;1.65;;
18568;SDS011;14780;48.316;-1.050;2023-08-12T04:58:35;2.53;;;1.60;;
18568;SDS011;14780;48.316;-1.050;2023-08-12T05:01:19;2.50;;;1.67;;
18568;SDS011;14780;48.316;-1.050;2023-08-12T05:04:04;2.70;;;1.70;;
18568;SDS011;14780;48.316;-1.050;2023-08-12T05:06:49;2.40;;;1.70;;
18568;SDS011;14780;48.316;-1.050;2023-08-12T05:09:34;3.72;;;1.60;;
18568;SDS011;14780;48.316;-1.050;2023-08-12T05:12:19;3.92;;;1.60;;
18568;SDS011;14780;48.316;-1.050;2023-08-12T05:15:04;2.92;;;1.65;;
18568;SDS011;14780;48.316;-1.050;2023-08-12T05:17:49;3.50;;;1.70;;
18568;SDS011;14780;48.316;-1.050;2023-08-12T05:20:33;2.55;;;1.55;;
18568;SDS011;14780;48.316;-1.050;2023-08-12T05:23:20;2.45;;;1.70;;
18568;SDS011;14780;48.316;-1.050;2023-08-12T05:26:05;3.30;;;1.70;;
18568;SDS011;14780;48.316;-1.050;2023-08-12T05:28:50;3.80;;;1.95;;
18568;SDS011;14780;48.316;-1.050;2023-08-12T05:31:35;2.83;;;1.70;;
18568;SDS011;14780;48.316;-1.050;2023-08-12T05:34:19;3.08;;;1.83;;
18568;SDS011;14780;48.316;-1.050;2023-08-12T05:37:04;3.17;;;1.70;;
18568;SDS011;14780;48.316;-1.050;2023-08-12T05:39:48;2.15;;;1.60;;
18568;SDS011;14780;48.316;-1.050;2023-08-12T05:42:33;2.53;;;1.67;;
18568;SDS011;14780;48.316;-1.050;2023-08-12T05:45:18;2.00;;;1.40;;
18568;SDS011;14780;48.316;-1.050;2023-08-12T05:48:03;2.65;;;1.65;;
18568;SDS011;14780;48.316;-1.050;2023-08-12T05:50:48;1.98;;;1.35;;
18568;SDS011;14780;48.316;-1.050;2023-08-12T05:53:33;2.92;;;1.60;;
18568;SDS011;14780;48.316;-1.050;2023-08-12T05:56:18;2.35;;;1.45;;
18568;SDS011;14780;48.316;-1.050;2023-08-12T05:59:02;2.05;;;1.50;;
18568;SDS011;14780;48.316;-1.050;2023-08-12T06:01:48;3.15;;;1.70;;
18568;SDS011;14780;48.316;-1.050;2023-08-12T06:04:33;3.65;;;1.80;;
18568;SDS011;14780;48.316;-1.050;2023-08-12T06:07:17;2.50;;;1.47;;
18568;SDS011;14780;48.316;-1.050;2023-08-12T06:10:02;3.08;;;1.92;;
18568;SDS011;14780;48.316;-1.050;2023-08-12T06:12:48;2.67;;;1.65;;
18568;SDS011;14780;48.316;-1.050;2023-08-12T06:15:32;2.53;;;1.60;;
18568;SDS011;14780;48.316;-1.050;2023-08-12T06:18:17;3.88;;;1.77;;
18568;SDS011;14780;48.316;-1.050;2023-08-12T06:21:01;2.95;;;1.80;;
18568;SDS011;14780;48.316;-1.050;2023-08-12T06:23:46;2.27;;;1.67;;
18568;SDS011;14780;48.316;-1.050;2023-08-12T06:26:31;3.05;;;1.70;;
18568;SDS011;14780;48.316;-1.050;2023-08-12T06:29:16;2.75;;;1.65;;
18568;SDS011;14780;48.316;-1.050;2023-08-12T06:32:01;2.67;;;1.83;;
18568;SDS011;14780;48.316;-1.050;2023-08-12T06:34:45;2.72;;;1.55;;
18568;SDS011;14780;48.316;-1.050;2023-08-12T06:37:30;2.85;;;1.75;;
18568;SDS011;14780;48.316;-1.050;2023-08-12T06:40:15;2.97;;;1.75;;
18568;SDS011;14780;48.316;-1.050;2023-08-12T06:43:00;4.88;;;1.90;;
18568;SDS011;14780;48.316;-1.050;2023-08-12T06:45:46;3.67;;;2.15;;
18568;SDS011;14780;48.316;-1.050;2023-08-12T06:48:30;3.33;;;1.80;;
18568;SDS011;14780;48.316;-1.050;2023-08-12T06:51:15;3.70;;;2.00;;
18568;SDS011;14780;48.316;-1.050;2023-08-12T06:53:59;3.17;;;1.85;;
18568;SDS011;14780;48.316;-1.050;2023-08-12T06:56:44;3.78;;;2.20;;
18568;SDS011;14780;48.316;-1.050;2023-08-12T06:59:28;3.17;;;2.00;;
18568;SDS011;14780;48.316;-1.050;2023-08-12T07:02:13;3.35;;;1.80;;
18568;SDS011;14780;48.316;-1.050;2023-08-12T07:04:57;4.43;;;2.28;;
18568;SDS011;14780;48.316;-1.050;2023-08-12T07:07:43;3.70;;;1.80;;
18568;SDS011;14780;48.316;-1.050;2023-08-12T07:10:27;4.25;;;1.95;;
18568;SDS011;14780;48.316;-1.050;2023-08-12T07:13:12;5.13;;;2.00;;
18568;SDS011;14780;48.316;-1.050;2023-08-12T07:15:57;4.57;;;2.37;;
18568;SDS011;14780;48.316;-1.050;2023-08-12T07:18:41;5.70;;;2.08;;
18568;SDS011;14780;48.316;-1.050;2023-08-12T07:21:26;4.10;;;2.10;;
18568;SDS011;14780;48.316;-1.050;2023-08-12T07:24:10;4.13;;;2.25;;
18568;SDS011;14780;48.316;-1.050;2023-08-12T07:26:55;7.32;;;2.70;;
18568;SDS011;14780;48.316;-1.050;2023-08-12T07:29:39;5.38;;;2.53;;
18568;SDS011;14780;48.316;-1.050;2023-08-12T07:32:24;5.68;;;2.70;;
18568;SDS011;14780;48.316;-1.050;2023-08-12T07:35:08;4.90;;;2.80;;
18568;SDS011;14780;48.316;-1.050;2023-08-12T07:37:53;11.23;;;4.78;;
18568;SDS011;14780;48.316;-1.050;2023-08-12T07:40:38;6.93;;;3.25;;
18568;SDS011;14780;48.316;-1.050;2023-08-12T07:43:23;5.97;;;2.90;;
18568;SDS011;14780;48.316;-1.050;2023-08-12T07:46:07;7.23;;;3.23;;
18568;SDS011;14780;48.316;-1.050;2023-08-12T07:48:52;6.45;;;3.10;;
18568;SDS011;14780;48.316;-1.050;2023-08-12T07:51:37;7.07;;;2.72;;
18568;SDS011;14780;48.316;-1.050;2023-08-12T07:54:21;6.47;;;2.88;;
18568;SDS011;14780;48.316;-1.050;2023-08-12T07:57:06;6.18;;;2.70;;
18568;SDS011;14780;48.316;-1.050;2023-08-12T07:59:51;5.93;;;2.83;;
18568;SDS011;14780;48.316;-1.050;2023-08-12T08:02:36;6.20;;;2.92;;
18568;SDS011;14780;48.316;-1.050;2023-08-12T08:05:21;5.45;;;2.85;;
18568;SDS011;14780;48.316;-1.050;2023-08-12T08:08:05;7.10;;;2.95;;
18568;SDS011;14780;48.316;-1.050;2023-08-12T08:10:50;6.70;;;2.80;;
18568;SDS011;14780;48.316;-1.050;2023-08-12T08:13:35;5.80;;;2.78;;
18568;SDS011;14780;48.316;-1.050;2023-08-12T08:16:20;6.95;;;2.97;;
18568;SDS011;14780;48.316;-1.050;2023-08-12T08:19:05;6.78;;;3.20;;
18568;SDS011;14780;48.316;-1.050;2023-08-12T08:21:49;9.32;;;3.20;;
18568;SDS011;14780;48.316;-1.050;2023-08-12T08:24:34;9.48;;;3.25;;
18568;SDS011;14780;48.316;-1.050;2023-08-12T08:27:19;18.37;;;7.10;;
18568;SDS011;14780;48.316;-1.050;2023-08-12T08:30:04;15.52;;;5.88;;
18568;SDS011;14780;48.316;-1.050;2023-08-12T08:32:52;9.48;;;5.05;;
18568;SDS011;14780;48.316;-1.050;2023-08-12T08:35:37;11.80;;;4.80;;
18568;SDS011;14780;48.316;-1.050;2023-08-12T08:38:22;13.65;;;5.20;;
18568;SDS011;14780;48.316;-1.050;2023-08-12T08:41:06;10.85;;;4.45;;
18568;SDS011;14780;48.316;-1.050;2023-08-12T08:43:56;10.48;;;4.40;;
18568;SDS011;14780;48.316;-1.050;2023-08-12T08:46:50;7.47;;;4.07;;
18568;SDS011;14780;48.316;-1.050;2023-08-12T08:49:37;7.70;;;3.77;;
18568;SDS011;14780;48.316;-1.050;2023-08-12T08:52:25;10.75;;;3.83;;
18568;SDS011;14780;48.316;-1.050;2023-08-12T08:55:10;8.35;;;3.45;;
18568;SDS011;14780;48.316;-1.050;2023-08-12T08:57:56;7.07;;;3.47;;
18568;SDS011;14780;48.316;-1.050;2023-08-12T09:00:41;8.35;;;3.33;;
18568;SDS011;14780;48.316;-1.050;2023-08-12T09:03:27;6.75;;;3.35;;
18568;SDS011;14780;48.316;-1.050;2023-08-12T09:06:13;8.10;;;3.55;;
18568;SDS011;14780;48.316;-1.050;2023-08-12T09:08:58;5.73;;;3.27;;
18568;SDS011;14780;48.316;-1.050;2023-08-12T09:11:46;7.95;;;3.47;;
18568;SDS011;14780;48.316;-1.050;2023-08-12T09:14:32;6.90;;;3.10;;
18568;SDS011;14780;48.316;-1.050;2023-08-12T09:17:18;7.65;;;3.10;;
18568;SDS011;14780;48.316;-1.050;2023-08-12T09:20:03;5.88;;;3.05;;
18568;SDS011;14780;48.316;-1.050;2023-08-12T09:22:55;8.57;;;3.30;;
18568;SDS011;14780;48.316;-1.050;2023-08-12T09:25:42;8.95;;;3.45;;
18568;SDS011;14780;48.316;-1.050;2023-08-12T09:28:30;7.75;;;3.08;;
18568;SDS011;14780;48.316;-1.050;2023-08-12T09:31:22;6.90;;;3.00;;
18568;SDS011;14780;48.316;-1.050;2023-08-12T09:34:08;7.97;;;3.45;;
18568;SDS011;14780;48.316;-1.050;2023-08-12T09:36:53;8.48;;;3.33;;
18568;SDS011;14780;48.316;-1.050;2023-08-12T09:39:38;7.07;;;3.20;;
18568;SDS011;14780;48.316;-1.050;2023-08-12T09:42:23;8.57;;;3.38;;
18568;SDS011;14780;48.316;-1.050;2023-08-12T09:45:08;8.02;;;3.42;;
18568;SDS011;14780;48.316;-1.050;2023-08-12T09:47:54;8.10;;;3.10;;
18568;SDS011;14780;48.316;-1.050;2023-08-12T09:50:39;7.20;;;3.30;;
18568;SDS011;14780;48.316;-1.050;2023-08-12T09:53:24;7.78;;;3.42;;
18568;SDS011;14780;48.316;-1.050;2023-08-12T09:56:11;6.72;;;3.00;;
18568;SDS011;14780;48.316;-1.050;2023-08-12T09:58:57;6.00;;;3.10;;
18568;SDS011;14780;48.316;-1.050;2023-08-12T10:01:43;7.68;;;3.50;;
18568;SDS011;14780;48.316;-1.050;2023-08-12T10:04:32;6.43;;;3.25;;
18568;SDS011;14780;48.316;-1.050;2023-08-12T10:07:26;6.63;;;2.97;;
18568;SDS011;14780;48.316;-1.050;2023-08-12T10:10:11;8.05;;;3.40;;
18568;SDS011;14780;48.316;-1.050;2023-08-12T10:12:57;8.63;;;2.92;;
18568;SDS011;14780;48.316;-1.050;2023-08-12T10:15:43;6.50;;;3.17;;
18568;SDS011;14780;48.316;-1.050;2023-08-12T10:18:28;6.13;;;3.27;;
18568;SDS011;14780;48.316;-1.050;2023-08-12T10:21:14;9.80;;;3.88;;
18568;SDS011;14780;48.316;-1.050;2023-08-12T10:24:01;6.70;;;3.33;;
18568;SDS011;14780;48.316;-1.050;2023-08-12T10:26:47;11.50;;;4.10;;
18568;SDS011;14780;48.316;-1.050;2023-08-12T10:29:33;9.90;;;3.80;;
18568;SDS011;14780;48.316;-1.050;2023-08-12T10:32:19;32.67;;;10.57;;
18568;SDS011;14780;48.316;-1.050;2023-08-12T10:35:06;31.63;;;10.77;;
18568;SDS011;14780;48.316;-1.050;2023-08-12T10:37:52;29.40;;;11.05;;
18568;SDS011;14780;48.316;-1.050;2023-08-12T10:40:36;30.97;;;9.70;;
18568;SDS011;14780;48.316;-1.050;2023-08-12T10:43:21;21.30;;;8.07;;
18568;SDS011;14780;48.316;-1.050;2023-08-12T10:46:20;14.32;;;5.28;;
18568;SDS011;14780;48.316;-1.050;2023-08-12T10:49:14;14.48;;;4.60;;
18568;SDS011;14780;48.316;-1.050;2023-08-12T10:51:58;9.97;;;4.10;;
18568;SDS011;14780;48.316;-1.050;2023-08-12T10:54:43;11.48;;;5.03;;
18568;SDS011;14780;48.316;-1.050;2023-08-12T10:57:36;9.98;;;4.18;;
18568;SDS011;14780;48.316;-1.050;2023-08-12T11:00:25;13.73;;;4.10;;
18568;SDS011;14780;48.316;-1.050;2023-08-12T11:03:11;11.65;;;3.72;;
18568;SDS011;14780;48.316;-1.050;2023-08-12T11:05:57;12.88;;;4.28;;
18568;SDS011;14780;48.316;-1.050;2023-08-12T11:08:47;11.73;;;4.20;;
18568;SDS011;14780;48.316;-1.050;2023-08-12T11:11:40;10.85;;;3.90;;
18568;SDS011;14780;48.316;-1.050;2023-08-12T11:14:25;11.15;;;4.07;;
18568;SDS011;14780;48.316;-1.050;2023-08-12T11:17:13;9.20;;;3.65;;
18568;SDS011;14780;48.316;-1.050;2023-08-12T11:19:59;8.90;;;3.42;;
18568;SDS011;14780;48.316;-1.050;2023-08-12T11:22:45;9.67;;;4.23;;
18568;SDS011;14780;48.316;-1.050;2023-08-12T11:25:31;14.27;;;3.53;;
18568;SDS011;14780;48.316;-1.050;2023-08-12T11:28:17;10.73;;;3.88;;
18568;SDS011;14780;48.316;-1.050;2023-08-12T11:31:03;9.02;;;3.92;;
18568;SDS011;14780;48.316;-1.050;2023-08-12T11:33:48;9.45;;;3.50;;
18568;SDS011;14780;48.316;-1.050;2023-08-12T11:36:33;8.53;;;3.70;;
18568;SDS011;14780;48.316;-1.050;2023-08-12T11:39:17;8.80;;;3.88;;
18568;SDS011;14780;48.316;-1.050;2023-08-12T11:42:02;8.00;;;3.40;;
18568;SDS011;14780;48.316;-1.050;2023-08-12T11:44:47;9.77;;;3.55;;
18568;SDS011;14780;48.316;-1.050;2023-08-12T11:47:36;9.73;;;3.85;;
18568;SDS011;14780;48.316;-1.050;2023-08-12T11:50:23;8.40;;;3.35;;
18568;SDS011;14780;48.316;-1.050;2023-08-12T11:53:09;8.98;;;3.63;;
18568;SDS011;14780;48.316;-1.050;2023-08-12T11:55:54;9.07;;;3.70;;
18568;SDS011;14780;48.316;-1.050;2023-08-12T11:58:39;9.00;;;3.80;;
18568;SDS011;14780;48.316;-1.050;2023-08-12T12:01:23;7.80;;;3.40;;
18568;SDS011;14780;48.316;-1.050;2023-08-12T12:04:09;8.93;;;3.60;;
18568;SDS011;14780;48.316;-1.050;2023-08-12T12:06:54;8.43;;;3.60;;
18568;SDS011;14780;48.316;-1.050;2023-08-12T12:09:42;7.60;;;3.45;;
18568;SDS011;14780;48.316;-1.050;2023-08-12T12:12:27;7.43;;;3.40;;
18568;SDS011;14780;48.316;-1.050;2023-08-12T12:15:13;8.60;;;3.65;;
18568;SDS011;14780;48.316;-1.050;2023-08-12T12:18:01;10.43;;;3.42;;
18568;SDS011;14780;48.316;-1.050;2023-08-12T12:20:55;10.00;;;3.63;;
18568;SDS011;14780;48.316;-1.050;2023-08-12T12:23:41;9.40;;;3.20;;
18568;SDS011;14780;48.316;-1.050;2023-08-12T12:26:26;7.28;;;3.40;;
18568;SDS011;14780;48.316;-1.050;2023-08-12T12:29:11;9.00;;;3.78;;
18568;SDS011;14780;48.316;-1.050;2023-08-12T12:31:57;8.95;;;3.60;;
18568;SDS011;14780;48.316;-1.050;2023-08-12T12:34:41;8.68;;;3.30;;
18568;SDS011;14780;48.316;-1.050;2023-08-12T12:37:26;8.27;;;3.60;;
18568;SDS011;14780;48.316;-1.050;2023-08-12T12:40:11;7.60;;;3.43;;
18568;SDS011;14780;48.316;-1.050;2023-08-12T12:42:56;8.30;;;3.25;;
18568;SDS011;14780;48.316;-1.050;2023-08-12T12:45:42;8.10;;;3.58;;
18568;SDS011;14780;48.316;-1.050;2023-08-12T12:48:27;8.73;;;3.53;;
18568;SDS011;14780;48.316;-1.050;2023-08-12T12:51:12;6.85;;;3.50;;
18568;SDS011;14780;48.316;-1.050;2023-08-12T12:53:57;7.65;;;3.20;;
18568;SDS011;14780;48.316;-1.050;2023-08-12T12:56:41;6.55;;;3.13;;
18568;SDS011;14780;48.316;-1.050;2023-08-12T12:59:26;9.63;;;3.70;;
18568;SDS011;14780;48.316;-1.050;2023-08-12T13:02:11;6.75;;;3.25;;
18568;SDS011;14780;48.316;-1.050;2023-08-12T13:04:56;8.05;;;3.50;;
18568;SDS011;14780;48.316;-1.050;2023-08-12T13:07:40;9.90;;;3.38;;
18568;SDS011;14780;48.316;-1.050;2023-08-12T13:10:25;9.57;;;3.80;;
18568;SDS011;14780;48.316;-1.050;2023-08-12T13:13:10;8.18;;;3.33;;
18568;SDS011;14780;48.316;-1.050;2023-08-12T13:15:56;9.23;;;3.22;;
18568;SDS011;14780;48.316;-1.050;2023-08-12T13:18:42;6.75;;;3.28;;
18568;SDS011;14780;48.316;-1.050;2023-08-12T13:21:27;9.48;;;3.45;;
18568;SDS011;14780;48.316;-1.050;2023-08-12T13:24:12;10.15;;;4.03;;
18568;SDS011;14780;48.316;-1.050;2023-08-12T13:26:57;6.72;;;3.45;;
18568;SDS011;14780;48.316;-1.050;2023-08-12T13:29:42;8.00;;;3.45;;
18568;SDS011;14780;48.316;-1.050;2023-08-12T13:32:26;9.07;;;3.13;;
18568;SDS011;14780;48.316;-1.050;2023-08-12T13:35:11;10.45;;;3.30;;
18568;SDS011;14780;48.316;-1.050;2023-08-12T13:37:56;8.98;;;3.50;;
18568;SDS011;14780;48.316;-1.050;2023-08-12T13:40:41;8.73;;;3.38;;
18568;SDS011;14780;48.316;-1.050;2023-08-12T13:43:26;11.88;;;3.85;;
18568;SDS011;14780;48.316;-1.050;2023-08-12T13:46:11;7.93;;;3.58;;
18568;SDS011;14780;48.316;-1.050;2023-08-12T13:48:56;9.13;;;3.47;;
18568;SDS011;14780;48.316;-1.050;2023-08-12T13:51:40;9.87;;;3.60;;
18568;SDS011;14780;48.316;-1.050;2023-08-12T13:54:25;7.97;;;3.17;;
18568;SDS011;14780;48.316;-1.050;2023-08-12T13:57:10;9.05;;;3.75;;
18568;SDS011;14780;48.316;-1.050;2023-08-12T13:59:55;7.68;;;3.60;;
18568;SDS011;14780;48.316;-1.050;2023-08-12T14:02:40;8.60;;;3.50;;
18568;SDS011;14780;48.316;-1.050;2023-08-12T14:05:25;8.90;;;3.58;;
18568;SDS011;14780;48.316;-1.050;2023-08-12T14:08:11;8.57;;;3.30;;
18568;SDS011;14780;48.316;-1.050;2023-08-12T14:10:55;10.37;;;3.67;;
18568;SDS011;14780;48.316;-1.050;2023-08-12T14:13:40;7.15;;;3.25;;
18568;SDS011;14780;48.316;-1.050;2023-08-12T14:16:24;7.15;;;3.10;;
18568;SDS011;14780;48.316;-1.050;2023-08-12T14:19:09;6.70;;;3.77;;
18568;SDS011;14780;48.316;-1.050;2023-08-12T14:21:54;7.28;;;3.28;;
18568;SDS011;14780;48.316;-1.050;2023-08-12T14:24:38;12.18;;;3.78;;
18568;SDS011;14780;48.316;-1.050;2023-08-12T14:27:24;8.60;;;3.55;;
18568;SDS011;14780;48.316;-1.050;2023-08-12T14:30:09;7.22;;;3.13;;
18568;SDS011;14780;48.316;-1.050;2023-08-12T14:32:54;7.27;;;3.10;;
18568;SDS011;14780;48.316;-1.050;2023-08-12T14:35:39;9.00;;;3.47;;
18568;SDS011;14780;48.316;-1.050;2023-08-12T14:38:24;7.43;;;3.00;;
18568;SDS011;14780;48.316;-1.050;2023-08-12T14:41:09;7.55;;;3.35;;
18568;SDS011;14780;48.316;-1.050;2023-08-12T14:43:53;11.20;;;3.75;;
18568;SDS011;14780;48.316;-1.050;2023-08-12T14:46:38;7.28;;;3.35;;
18568;SDS011;14780;48.316;-1.050;2023-08-12T14:49:23;8.37;;;3.30;;
18568;SDS011;14780;48.316;-1.050;2023-08-12T14:52:15;8.52;;;3.17;;
18568;SDS011;14780;48.316;-1.050;2023-08-12T14:55:01;10.48;;;3.63;;
18568;SDS011;14780;48.316;-1.050;2023-08-12T14:57:46;8.18;;;3.60;;
18568;SDS011;14780;48.316;-1.050;2023-08-12T15:00:31;8.55;;;3.15;;
18568;SDS011;14780;48.316;-1.050;2023-08-12T15:03:17;7.25;;;3.30;;
18568;SDS011;14780;48.316;-1.050;2023-08-12T15:06:02;9.35;;;3.35;;
18568;SDS011;14780;48.316;-1.050;2023-08-12T15:08:48;8.35;;;3.58;;
18568;SDS011;14780;48.316;-1.050;2023-08-12T15:11:33;9.67;;;3.67;;
18568;SDS011;14780;48.316;-1.050;2023-08-12T15:14:18;7.32;;;3.33;;
18568;SDS011;14780;48.316;-1.050;2023-08-12T15:17:03;10.02;;;3.47;;
18568;SDS011;14780;48.316;-1.050;2023-08-12T15:19:48;6.95;;;3.15;;
18568;SDS011;14780;48.316;-1.050;2023-08-12T15:22:32;7.13;;;3.50;;
18568;SDS011;14780;48.316;-1.050;2023-08-12T15:25:17;8.23;;;3.43;;
18568;SDS011;14780;48.316;-1.050;2023-08-12T15:28:02;8.07;;;3.17;;
18568;SDS011;14780;48.316;-1.050;2023-08-12T15:30:47;7.78;;;3.45;;
18568;SDS011;14780;48.316;-1.050;2023-08-12T15:33:32;9.20;;;3.38;;
18568;SDS011;14780;48.316;-1.050;2023-08-12T15:36:17;8.73;;;3.60;;
18568;SDS011;14780;48.316;-1.050;2023-08-12T15:39:02;8.18;;;3.47;;
18568;SDS011;14780;48.316;-1.050;2023-08-12T15:41:47;7.57;;;3.37;;
18568;SDS011;14780;48.316;-1.050;2023-08-12T15:44:32;8.27;;;3.40;;
18568;SDS011;14780;48.316;-1.050;2023-08-12T15:47:18;9.52;;;3.67;;
18568;SDS011;14780;48.316;-1.050;2023-08-12T15:50:02;6.07;;;3.08;;
18568;SDS011;14780;48.316;-1.050;2023-08-12T15:52:48;6.93;;;3.08;;
18568;SDS011;14780;48.316;-1.050;2023-08-12T15:55:32;9.77;;;3.80;;
18568;SDS011;14780;48.316;-1.050;2023-08-12T15:58:17;9.73;;;3.60;;
18568;SDS011;14780;48.316;-1.050;2023-08-12T16:01:02;7.47;;;3.20;;
18568;SDS011;14780;48.316;-1.050;2023-08-12T16:03:47;10.90;;;3.72;;
18568;SDS011;14780;48.316;-1.050;2023-08-12T16:06:32;10.18;;;3.63;;
18568;SDS011;14780;48.316;-1.050;2023-08-12T16:09:16;9.63;;;3.50;;
18568;SDS011;14780;48.316;-1.050;2023-08-12T16:12:01;9.60;;;3.83;;
18568;SDS011;14780;48.316;-1.050;2023-08-12T16:14:46;7.97;;;3.78;;
18568;SDS011;14780;48.316;-1.050;2023-08-12T16:17:31;10.20;;;3.55;;
18568;SDS011;14780;48.316;-1.050;2023-08-12T16:20:16;8.52;;;3.88;;
18568;SDS011;14780;48.316;-1.050;2023-08-12T16:23:00;8.80;;;3.38;;